Batajnica, Serbia
Current Conditions -  °F | °C
As of 4:00 PM on Saturday 20 Dec 2014 (Local Time) from LYBT Reporting Station
Clear Clear  
Wind Chill: 52°   Ceiling: Unl
Heat Index: 52°   Visibility: 6mi
Dew Point: 39°   Wind: 10mph
Humidity: 62%   Direction: 20°NNE
Pressure: 30.18"   Gusts: NA
Location:  44.9°N, 20.28°E
Report Text: LYBT 201400Z 02009KT CAVOK 11/04 Q1022 NOSIG
Loading
Personal Weather Stations






























Interactive Weather Map New forecast layout! Learn more

10-Day Weather Forecast

Advertisements
Track Severe Weather on mobile